Varnadiep — PBIB — position and weather

sailwx.info

Track history (hours):
 
Tides and Currents Weather Stations Pressure Air Temp Water Temp Dewpoint Dewpoint Depression Visibility Wind Speed Wind Dir Waves Ship Positions

Varnadiep

Last reported at 2014-Sep-21 01:33 UTC. Time now 2014-Sep-21 02:04 UTC.
Position N 54°44' E 012°33'.

Length 118 m; draft 7.4 m.

Type: Cargo ship. MMSI: 244729000.

Date/timePositionNaut miles runAvg speedWind from/ knotsBaromVisibWave heightAir tempDewpointWater temp
2014-Sep-21 01:33N 54°44' E 012°33'1212.1
2014-Sep-21 00:33N 54°50' E 012°51'1212.3
2014-Sep-20 23:33N 54°54' E 013°11'1212.3
2014-Sep-20 22:33N 54°58' E 013°32'1212.2
2014-Sep-20 21:33N 55°02' E 013°52'1212.1
2014-Sep-20 20:33N 55°08' E 014°09'1312.3
2014-Sep-20 19:30N 55°18' E 014°23'1312.4
2014-Sep-20 18:29N 55°28' E 014°37'1312.3
2014-Sep-20 17:25N 55°34' E 014°58'1312.2
2014-Sep-20 16:20N 55°41' E 015°18'3512.5
2014-Sep-20 13:33N 55°59' E 016°11'2612.6
2014-Sep-20 11:29N 56°12' E 016°51'1212.6
2014-Sep-20 10:33N 56°19' E 017°08'1312.6
2014-Sep-20 09:32N 56°27' E 017°27'1212.4
2014-Sep-20 08:32N 56°34' E 017°45'1212.4
2014-Sep-20 07:33N 56°41' E 018°03'1312.4
2014-Sep-20 06:33N 56°49' E 018°21'1312.3
2014-Sep-20 05:28N 56°59' E 018°37'1512.2
2014-Sep-20 04:14N 57°11' E 018°53'812.1
2014-Sep-20 03:34N 57°18' E 019°02'18712.1
2014-Sep-19 12:10N 59°39' E 022°55'710.3
2014-Sep-19 11:32N 59°45' E 023°03'8 8.5
2014-Sep-19 10:33N 59°49' E 023°17'5 0.3
2014-Sep-18 15:13N 59°54' E 023°16'0 0.0
2014-Sep-18 08:31N 59°54' E 023°16'6 6.1
2014-Sep-18 07:33N 59°48' E 023°13'8 7.6
2014-Sep-18 06:33N 59°43' E 023°04'4312.5
2014-Sep-18 03:07N 59°35' E 021°40'712.8
2014-Sep-18 02:33N 59°36' E 021°26'  
2014-Sep-13 04:23N 56°11' E 019°45'2813.0
2014-Sep-13 02:14N 55°43' E 019°41'913.0
2014-Sep-13 01:33N 55°34' E 019°40'1313.0
2014-Sep-13 00:33N 55°21' E 019°38'1313.1
2014-Sep-12 23:33N 55°08' E 019°37'1313.0
2014-Sep-12 22:33N 54°55' E 019°35'1212.0
2014-Sep-12 21:33N 54°43' E 019°40'1010.1
2014-Sep-12 20:33N 54°38' E 019°55'0 0.1
2014-Sep-12 19:31N 54°38' E 019°55'0 0.0
2014-Sep-12 18:31N 54°38' E 019°55'0 0.0
2014-Sep-12 17:31N 54°38' E 019°55'0 0.0
2014-Sep-12 16:28N 54°38' E 019°55'0 0.0
2014-Sep-12 15:31N 54°38' E 019°55'0 0.0
2014-Sep-12 14:31N 54°38' E 019°55'0 0.0
2014-Sep-12 13:28N 54°38' E 019°55'4 2.2
2014-Sep-12 11:33N 54°40' E 019°49'4 3.7
2014-Sep-12 10:33N 54°39' E 019°42'1 1.2
2014-Sep-12 09:33N 54°41' E 019°43'1 0.9
2014-Sep-12 08:33N 54°40' E 019°44'1 0.8
2014-Sep-12 07:33N 54°40' E 019°43'7 7.1
2014-Sep-12 06:33N 54°45' E 019°34'6 6.4
2014-Sep-12 05:33N 54°48' E 019°24'4 4.3
2014-Sep-12 04:33N 54°49' E 019°17'1212.1
2014-Sep-12 03:33N 54°54' E 018°58'1212.4
2014-Sep-12 02:33N 54°58' E 018°37'1212.1
2014-Sep-12 01:33N 55°02' E 018°17'1212.1
2014-Sep-12 00:33N 55°04' E 017°57'1312.0
2014-Sep-11 23:31N 55°07' E 017°35'1212.5
2014-Sep-11 22:33N 55°10' E 017°15'1312.7
2014-Sep-11 21:33N 55°13' E 016°54'3912.5
2014-Sep-11 18:24N 55°21' E 015°46'1112.8
2014-Sep-11 17:33N 55°24' E 015°27'1313.0
2014-Sep-11 16:33N 55°24' E 015°05'1312.7
2014-Sep-11 15:33N 55°24' E 014°42'1212.3
2014-Sep-11 14:33N 55°15' E 014°27'1111.0
2014-Sep-11 13:33N 55°11' E 014°09'1313.2
2014-Sep-11 12:33N 55°12' E 013°47'1413.0
2014-Sep-11 11:30N 55°13' E 013°22'1313.3
2014-Sep-11 10:33N 55°14' E 013°00'1313.3
2014-Sep-11 09:34N 55°18' E 012°38'1313.4
2014-Sep-11 08:33N 55°32' E 012°42'9 9.1
2014-Sep-11 07:33N 55°41' E 012°41'1010.2
2014-Sep-11 06:33N 55°51' E 012°40'1212.3
2014-Sep-11 05:33N 56°03' E 012°38'1312.6
2014-Sep-11 04:33N 56°11' E 012°21'1312.7
2014-Sep-11 03:33N 56°18' E 012°02'  
Track history (hours):
 
Tides and Currents Weather Stations Pressure Air Temp Water Temp Dewpoint Dewpoint Depression Visibility Wind Speed Wind Dir Waves Ship Positions

Varnadiep

Last reported at 2014-Sep-21 01:33 UTC. Time now 2014-Sep-21 02:04 UTC.
Position N 54°44' E 012°33'.

Length 118 m; draft 7.4 m.

Type: Cargo ship. MMSI: 244729000.

Date/timePositionNaut miles runAvg speedWind from/ knotsBaromVisibWave heightAir tempDewpointWater temp
2014-Sep-21 01:33N 54°44' E 012°33'1212.1
2014-Sep-21 00:33N 54°50' E 012°51'1212.3
2014-Sep-20 23:33N 54°54' E 013°11'1212.3
2014-Sep-20 22:33N 54°58' E 013°32'1212.2
2014-Sep-20 21:33N 55°02' E 013°52'1212.1
2014-Sep-20 20:33N 55°08' E 014°09'1312.3
2014-Sep-20 19:30N 55°18' E 014°23'1312.4
2014-Sep-20 18:29N 55°28' E 014°37'1312.3
2014-Sep-20 17:25N 55°34' E 014°58'1312.2
2014-Sep-20 16:20N 55°41' E 015°18'3512.5
2014-Sep-20 13:33N 55°59' E 016°11'2612.6
2014-Sep-20 11:29N 56°12' E 016°51'1212.6
2014-Sep-20 10:33N 56°19' E 017°08'1312.6
2014-Sep-20 09:32N 56°27' E 017°27'1212.4
2014-Sep-20 08:32N 56°34' E 017°45'1212.4
2014-Sep-20 07:33N 56°41' E 018°03'1312.4
2014-Sep-20 06:33N 56°49' E 018°21'1312.3
2014-Sep-20 05:28N 56°59' E 018°37'1512.2
2014-Sep-20 04:14N 57°11' E 018°53'812.1
2014-Sep-20 03:34N 57°18' E 019°02'18712.1
2014-Sep-19 12:10N 59°39' E 022°55'710.3
2014-Sep-19 11:32N 59°45' E 023°03'8 8.5
2014-Sep-19 10:33N 59°49' E 023°17'5 0.3
2014-Sep-18 15:13N 59°54' E 023°16'0 0.0
2014-Sep-18 08:31N 59°54' E 023°16'6 6.1
2014-Sep-18 07:33N 59°48' E 023°13'8 7.6
2014-Sep-18 06:33N 59°43' E 023°04'4312.5
2014-Sep-18 03:07N 59°35' E 021°40'712.8
2014-Sep-18 02:33N 59°36' E 021°26'  
2014-Sep-13 04:23N 56°11' E 019°45'2813.0
2014-Sep-13 02:14N 55°43' E 019°41'913.0
2014-Sep-13 01:33N 55°34' E 019°40'1313.0
2014-Sep-13 00:33N 55°21' E 019°38'1313.1
2014-Sep-12 23:33N 55°08' E 019°37'1313.0
2014-Sep-12 22:33N 54°55' E 019°35'1212.0
2014-Sep-12 21:33N 54°43' E 019°40'1010.1
2014-Sep-12 20:33N 54°38' E 019°55'0 0.1
2014-Sep-12 19:31N 54°38' E 019°55'0 0.0
2014-Sep-12 18:31N 54°38' E 019°55'0 0.0
2014-Sep-12 17:31N 54°38' E 019°55'0 0.0
2014-Sep-12 16:28N 54°38' E 019°55'0 0.0
2014-Sep-12 15:31N 54°38' E 019°55'0 0.0
2014-Sep-12 14:31N 54°38' E 019°55'0 0.0
2014-Sep-12 13:28N 54°38' E 019°55'4 2.2
2014-Sep-12 11:33N 54°40' E 019°49'4 3.7
2014-Sep-12 10:33N 54°39' E 019°42'1 1.2
2014-Sep-12 09:33N 54°41' E 019°43'1 0.9
2014-Sep-12 08:33N 54°40' E 019°44'1 0.8
2014-Sep-12 07:33N 54°40' E 019°43'7 7.1
2014-Sep-12 06:33N 54°45' E 019°34'6 6.4
2014-Sep-12 05:33N 54°48' E 019°24'4 4.3
2014-Sep-12 04:33N 54°49' E 019°17'1212.1
2014-Sep-12 03:33N 54°54' E 018°58'1212.4
2014-Sep-12 02:33N 54°58' E 018°37'1212.1
2014-Sep-12 01:33N 55°02' E 018°17'1212.1
2014-Sep-12 00:33N 55°04' E 017°57'1312.0
2014-Sep-11 23:31N 55°07' E 017°35'1212.5
2014-Sep-11 22:33N 55°10' E 017°15'1312.7
2014-Sep-11 21:33N 55°13' E 016°54'3912.5
2014-Sep-11 18:24N 55°21' E 015°46'1112.8
2014-Sep-11 17:33N 55°24' E 015°27'1313.0
2014-Sep-11 16:33N 55°24' E 015°05'1312.7
2014-Sep-11 15:33N 55°24' E 014°42'1212.3
2014-Sep-11 14:33N 55°15' E 014°27'1111.0
2014-Sep-11 13:33N 55°11' E 014°09'1313.2
2014-Sep-11 12:33N 55°12' E 013°47'1413.0
2014-Sep-11 11:30N 55°13' E 013°22'1313.3
2014-Sep-11 10:33N 55°14' E 013°00'1313.3
2014-Sep-11 09:34N 55°18' E 012°38'1313.4
2014-Sep-11 08:33N 55°32' E 012°42'9 9.1
2014-Sep-11 07:33N 55°41' E 012°41'1010.2
2014-Sep-11 06:33N 55°51' E 012°40'1212.3
2014-Sep-11 05:33N 56°03' E 012°38'1312.6
2014-Sep-11 04:33N 56°11' E 012°21'1312.7
2014-Sep-11 03:33N 56°18' E 012°02'  

Dump ship's entire track history